createdAt,value
2022-10-22T00:01:54.994Z,10.05
2022-10-22T00:06:56.959Z,10.09
2022-10-22T00:11:58.690Z,10.09
2022-10-22T00:17:04.214Z,10.13
2022-10-22T00:22:09.891Z,10.06
2022-10-22T00:27:12.692Z,10.00
2022-10-22T00:32:15.154Z,9.90
2022-10-22T00:37:16.852Z,9.85
2022-10-22T00:42:21.903Z,9.82
2022-10-22T00:47:25.210Z,9.77
2022-10-22T00:52:27.269Z,9.72
2022-10-22T00:57:29.255Z,9.74
2022-10-22T01:02:30.827Z,9.66
2022-10-22T01:13:35.403Z,9.53
2022-10-22T01:19:01.053Z,9.49
2022-10-22T01:24:11.374Z,9.45
2022-10-22T01:29:25.758Z,9.42
2022-10-22T01:34:29.502Z,9.36
2022-10-22T01:39:31.690Z,9.29
2022-10-22T01:50:04.978Z,9.28
2022-10-22T01:55:26.877Z,9.30
2022-10-22T02:00:29.155Z,9.25
2022-10-22T02:05:38.504Z,9.18
2022-10-22T02:10:44.630Z,9.11
2022-10-22T02:15:50.307Z,9.08
2022-10-22T02:20:52.971Z,9.02
2022-10-22T02:26:09.317Z,8.98
2022-10-22T02:31:17.357Z,8.98
2022-10-22T02:36:19.221Z,9.16
2022-10-22T02:41:21.288Z,9.29
2022-10-22T02:46:25.661Z,9.52
2022-10-22T02:51:27.409Z,9.82
2022-10-22T02:56:28.841Z,10.01
2022-10-22T03:01:30.566Z,10.10
2022-10-22T03:06:32.863Z,10.14
2022-10-22T03:11:34.716Z,10.06
2022-10-22T03:16:36.437Z,10.05
2022-10-22T03:21:50.735Z,9.91
2022-10-22T03:26:52.927Z,9.79
2022-10-22T03:31:55.836Z,9.78
2022-10-22T03:37:02.098Z,9.87
2022-10-22T03:42:07.743Z,9.86
2022-10-22T03:47:16.138Z,9.85
2022-10-22T03:52:18.178Z,9.74
2022-10-22T03:57:19.625Z,9.72
2022-10-22T04:02:22.680Z,9.66
2022-10-22T04:07:24.581Z,9.52
2022-10-22T04:12:26.234Z,9.36
2022-10-22T04:17:34.744Z,9.30
2022-10-22T04:22:37.153Z,9.21
2022-10-22T04:27:38.778Z,9.19
2022-10-22T04:32:44.431Z,9.08
2022-10-22T04:37:48.102Z,8.95
2022-10-22T04:42:49.881Z,8.94
2022-10-22T04:47:51.366Z,8.89
2022-10-22T04:52:56.834Z,8.81
2022-10-22T04:57:58.914Z,8.71
2022-10-22T05:03:00.577Z,8.66
2022-10-22T05:08:02.936Z,8.63
2022-10-22T05:13:08.421Z,8.60
2022-10-22T05:18:10.100Z,8.52
2022-10-22T05:23:11.775Z,8.44
2022-10-22T05:28:13.736Z,8.37
2022-10-22T05:33:15.152Z,8.28
2022-10-22T05:38:17.614Z,8.27
2022-10-22T05:43:19.082Z,8.28
2022-10-22T05:48:20.546Z,8.26
2022-10-22T05:53:22.448Z,8.18
2022-10-22T05:58:24.165Z,8.08
2022-10-22T06:03:26.086Z,8.00
2022-10-22T06:08:28.131Z,7.96
2022-10-22T06:13:29.581Z,7.92
2022-10-22T06:18:31.074Z,7.92
2022-10-22T06:23:33.115Z,7.95
2022-10-22T06:28:34.809Z,7.99
2022-10-22T06:33:42.081Z,8.09
2022-10-22T06:38:44.097Z,8.16
2022-10-22T06:43:49.650Z,8.38
2022-10-22T06:49:00.997Z,8.70
2022-10-22T06:54:02.523Z,9.00
2022-10-22T06:59:04.298Z,9.40
2022-10-22T07:04:06.781Z,9.90
2022-10-22T07:09:08.541Z,10.41
2022-10-22T07:14:11.292Z,10.85
2022-10-22T07:19:13.403Z,11.29
2022-10-22T07:24:14.892Z,12.50
2022-10-22T07:29:16.890Z,12.09
2022-10-22T07:39:25.891Z,12.19
2022-10-22T07:44:27.556Z,13.26
2022-10-22T07:49:29.065Z,16.92
2022-10-22T07:54:30.545Z,20.56
2022-10-22T07:59:32.060Z,21.47
2022-10-22T08:04:33.862Z,17.77
2022-10-22T08:09:36.119Z,15.15
2022-10-22T08:14:40.556Z,14.12
2022-10-22T08:19:42.397Z,14.09
2022-10-22T08:24:44.079Z,14.27
2022-10-22T08:29:49.278Z,14.99
2022-10-22T08:34:50.952Z,15.53
2022-10-22T08:39:52.498Z,15.42
2022-10-22T08:45:06.265Z,14.98
2022-10-22T08:50:15.656Z,15.27
2022-10-22T08:55:17.525Z,15.65
2022-10-22T09:00:34.201Z,16.04
2022-10-22T09:05:41.793Z,16.54
2022-10-22T09:10:49.017Z,16.49
2022-10-22T09:15:54.962Z,16.38
2022-10-22T09:21:17.040Z,16.32
2022-10-22T09:26:18.510Z,16.63
2022-10-22T09:31:20.012Z,16.94
2022-10-22T09:36:22.865Z,16.92
2022-10-22T09:41:32.328Z,17.09
2022-10-22T09:46:43.940Z,17.37
2022-10-22T09:51:56.153Z,17.09
2022-10-22T09:57:22.032Z,17.22
2022-10-22T10:02:37.928Z,16.89
2022-10-22T10:07:40.782Z,17.07
2022-10-22T10:12:48.209Z,17.43
2022-10-22T10:18:04.054Z,17.41
2022-10-22T10:23:27.933Z,16.91
2022-10-22T10:29:00.484Z,17.06
2022-10-22T10:34:31.625Z,17.56
2022-10-22T10:40:10.457Z,18.17
2022-10-22T10:45:24.214Z,17.88
2022-10-22T10:50:47.722Z,17.52
2022-10-22T10:56:07.527Z,17.97
2022-10-22T11:01:23.899Z,18.30
2022-10-22T11:06:27.592Z,18.48
2022-10-22T11:11:38.654Z,17.93
2022-10-22T11:16:46.650Z,17.85
2022-10-22T11:22:10.530Z,17.47
2022-10-22T11:27:31.354Z,17.23
2022-10-22T11:32:33.321Z,17.60
2022-10-22T11:37:39.159Z,17.25
2022-10-22T11:42:46.580Z,17.12
2022-10-22T11:47:57.609Z,17.44
2022-10-22T11:53:03.818Z,17.96
2022-10-22T11:58:28.364Z,17.59
2022-10-22T12:03:52.621Z,17.08
2022-10-22T12:08:54.931Z,17.07
2022-10-22T12:14:20.101Z,17.12
2022-10-22T12:19:31.749Z,17.16
2022-10-22T12:24:39.046Z,16.90
2022-10-22T12:29:42.554Z,16.59
2022-10-22T12:34:56.179Z,16.27
2022-10-22T12:40:37.229Z,16.43
2022-10-22T12:45:40.180Z,16.53
2022-10-22T12:50:47.887Z,16.52
2022-10-22T12:55:52.081Z,16.53
2022-10-22T13:00:59.538Z,16.55
2022-10-22T13:06:20.261Z,16.56
2022-10-22T13:11:22.062Z,16.52
2022-10-22T13:16:26.099Z,16.27
2022-10-22T13:21:39.839Z,16.17
2022-10-22T13:26:41.876Z,16.06
2022-10-22T13:31:50.180Z,16.03
2022-10-22T13:36:54.123Z,15.89
2022-10-22T13:41:55.636Z,15.85
2022-10-22T13:46:57.098Z,15.84
2022-10-22T13:52:00.539Z,15.88
2022-10-22T13:57:02.259Z,15.72
2022-10-22T14:02:07.250Z,15.70
2022-10-22T14:07:14.279Z,15.69
2022-10-22T14:12:17.437Z,15.69
2022-10-22T14:17:20.020Z,15.67
2022-10-22T14:22:23.679Z,15.72
2022-10-22T14:27:25.239Z,15.71
2022-10-22T14:32:28.319Z,15.77
2022-10-22T14:37:29.945Z,15.69
2022-10-22T14:42:32.876Z,15.55
2022-10-22T14:47:36.970Z,15.45
2022-10-22T14:52:38.560Z,15.44
2022-10-22T14:57:40.990Z,15.43
2022-10-22T15:02:43.706Z,15.36
2022-10-22T15:07:48.431Z,15.32
2022-10-22T15:12:52.885Z,15.36
2022-10-22T15:17:54.417Z,15.40
2022-10-22T15:22:56.730Z,15.35
2022-10-22T15:28:00.838Z,15.36
2022-10-22T15:33:06.980Z,15.27
2022-10-22T15:38:09.240Z,15.14
2022-10-22T15:43:11.417Z,15.12
2022-10-22T15:48:19.624Z,15.05
2022-10-22T15:53:21.315Z,14.98
2022-10-22T15:58:22.849Z,14.92
2022-10-22T16:03:24.477Z,14.86
2022-10-22T16:08:30.262Z,14.79
2022-10-22T16:13:31.835Z,14.69
2022-10-22T16:18:33.838Z,14.54
2022-10-22T16:23:35.491Z,14.44
2022-10-22T16:28:37.027Z,14.31
2022-10-22T16:33:46.458Z,14.20
2022-10-22T16:38:51.362Z,14.05
2022-10-22T16:43:55.198Z,13.99
2022-10-22T16:48:56.852Z,13.90
2022-10-22T16:53:58.295Z,13.82
2022-10-22T16:58:59.773Z,13.72
2022-10-22T17:04:01.665Z,13.59
2022-10-22T17:09:03.545Z,13.51
2022-10-22T17:14:05.613Z,13.46
2022-10-22T17:19:07.253Z,13.37
2022-10-22T17:24:09.851Z,13.31
2022-10-22T17:29:13.094Z,13.29
2022-10-22T17:34:17.660Z,13.25
2022-10-22T17:39:23.602Z,13.30
2022-10-22T17:44:25.636Z,13.24
2022-10-22T17:49:30.349Z,13.20
2022-10-22T17:54:33.001Z,13.11
2022-10-22T17:59:34.541Z,12.99
2022-10-22T18:04:36.040Z,12.85
2022-10-22T18:09:39.437Z,12.65
2022-10-22T18:14:42.006Z,12.47
2022-10-22T18:19:47.932Z,12.34
2022-10-22T18:24:50.818Z,12.20
2022-10-22T18:29:52.266Z,12.08
2022-10-22T18:34:54.104Z,11.96
2022-10-22T18:39:57.410Z,11.82
2022-10-22T18:45:01.063Z,11.74
2022-10-22T18:50:02.748Z,11.66
2022-10-22T18:55:04.987Z,11.54
2022-10-22T19:00:07.407Z,11.44
2022-10-22T19:05:09.476Z,11.44
2022-10-22T19:10:12.925Z,11.37
2022-10-22T19:15:14.524Z,11.29
2022-10-22T19:20:17.428Z,11.25
2022-10-22T19:25:20.000Z,11.24
2022-10-22T19:30:21.469Z,11.22
2022-10-22T19:35:23.158Z,11.17
2022-10-22T19:40:27.423Z,11.10
2022-10-22T19:45:31.588Z,11.09
2022-10-22T19:50:36.281Z,10.99
2022-10-22T19:55:46.435Z,10.89
2022-10-22T20:00:48.238Z,10.82
2022-10-22T20:05:53.098Z,10.75
2022-10-22T20:10:54.806Z,10.69
2022-10-22T20:15:56.867Z,10.77
2022-10-22T20:20:58.665Z,10.72
2022-10-22T20:26:01.055Z,10.73
2022-10-22T20:31:21.011Z,10.74
2022-10-22T20:36:24.125Z,10.71
2022-10-22T20:41:31.806Z,10.72
2022-10-22T20:46:34.288Z,10.76
2022-10-22T20:51:40.009Z,10.70
2022-10-22T20:56:42.546Z,10.78
2022-10-22T21:01:47.662Z,10.79
2022-10-22T21:06:50.364Z,10.72
2022-10-22T21:11:55.808Z,10.73
2022-10-22T21:16:59.738Z,10.70
2022-10-22T21:22:01.777Z,10.71
2022-10-22T21:27:03.955Z,10.68
2022-10-22T21:32:05.424Z,10.57
2022-10-22T21:37:06.897Z,10.52
2022-10-22T21:42:08.410Z,10.46
2022-10-22T21:47:09.925Z,10.40
2022-10-22T21:52:11.450Z,10.31
2022-10-22T21:57:12.898Z,10.23
2022-10-22T22:02:14.474Z,10.05
2022-10-22T22:07:41.231Z,9.95
2022-10-22T22:12:43.535Z,9.82
2022-10-22T22:17:46.425Z,9.71
2022-10-22T22:22:48.119Z,9.64
2022-10-22T22:27:49.747Z,9.59
2022-10-22T22:32:51.300Z,9.55
2022-10-22T22:37:53.261Z,9.53
2022-10-22T22:42:54.775Z,9.58
2022-10-22T22:47:57.165Z,9.57
2022-10-22T22:52:59.063Z,9.58
2022-10-22T22:58:00.804Z,9.49
2022-10-22T23:03:02.875Z,9.41
2022-10-22T23:08:04.965Z,9.31
2022-10-22T23:13:06.604Z,9.25
2022-10-22T23:18:08.026Z,9.18
2022-10-22T23:23:10.060Z,9.18
2022-10-22T23:28:15.120Z,9.22
2022-10-22T23:33:17.199Z,9.12
2022-10-22T23:38:18.669Z,9.00
2022-10-22T23:43:20.126Z,8.91
2022-10-22T23:48:22.219Z,8.81
2022-10-22T23:53:26.412Z,8.77
2022-10-22T23:58:27.833Z,8.77
